createdAt,value
2023-10-26T00:05:41.688Z,34.10
2023-10-26T00:15:45.992Z,34.22
2023-10-26T00:25:48.637Z,31.90
2023-10-26T00:35:55.221Z,34.35
2023-10-26T00:45:58.021Z,42.03
2023-10-26T00:56:02.304Z,37.65
2023-10-26T01:06:05.581Z,34.78
2023-10-26T01:16:09.648Z,41.38
2023-10-26T01:26:14.000Z,37.55
2023-10-26T01:36:17.288Z,39.72
2023-10-26T01:46:21.280Z,38.40
2023-10-26T01:56:23.919Z,37.78
2023-10-26T02:06:27.998Z,43.53
2023-10-26T02:16:30.820Z,40.63
2023-10-26T02:26:34.814Z,42.40
2023-10-26T02:36:37.668Z,40.35
2023-10-26T02:46:41.656Z,40.80
2023-10-26T02:56:44.272Z,43.00
2023-10-26T03:06:48.220Z,44.60
2023-10-26T03:16:51.511Z,38.72
2023-10-26T03:26:55.731Z,40.03
2023-10-26T03:36:58.456Z,36.55
2023-10-26T03:47:03.067Z,39.95
2023-10-26T03:57:07.342Z,43.28
2023-10-26T04:07:11.444Z,41.35
2023-10-26T04:17:16.092Z,33.90
2023-10-26T04:27:21.082Z,38.95
2023-10-26T04:37:23.884Z,39.15
2023-10-26T04:47:27.888Z,32.33
2023-10-26T04:57:30.698Z,34.78
2023-10-26T05:07:35.320Z,33.45
2023-10-26T05:17:39.254Z,42.65
2023-10-26T05:27:43.926Z,33.00
2023-10-26T05:37:46.814Z,33.13
2023-10-26T05:47:54.607Z,38.88
2023-10-26T05:57:57.260Z,38.63
2023-10-26T06:08:01.448Z,37.42
2023-10-26T06:18:04.516Z,36.30
2023-10-26T06:28:09.947Z,42.17
2023-10-26T06:38:12.709Z,33.05
2023-10-26T06:48:18.625Z,31.73
2023-10-26T06:58:22.002Z,33.20
2023-10-26T07:08:26.070Z,38.00
2023-10-26T07:18:28.936Z,38.60
2023-10-26T07:28:32.919Z,36.65
2023-10-26T07:38:37.469Z,36.00
2023-10-26T07:48:42.053Z,42.65
2023-10-26T07:58:44.802Z,34.40
2023-10-26T08:08:48.889Z,34.17
2023-10-26T08:18:52.287Z,33.05
2023-10-26T08:29:12.058Z,40.85
2023-10-26T08:39:17.421Z,36.55
2023-10-26T08:49:24.114Z,36.20
2023-10-26T08:59:29.465Z,38.25
2023-10-26T09:09:44.772Z,30.98
2023-10-26T09:19:47.581Z,37.08
2023-10-26T09:29:51.566Z,32.25
2023-10-26T09:40:12.070Z,30.48
2023-10-26T09:50:19.004Z,24.00
2023-10-26T10:00:32.047Z,25.38
2023-10-26T10:10:36.501Z,24.73
2023-10-26T10:20:41.452Z,24.08
2023-10-26T10:30:56.979Z,23.58
2023-10-26T10:41:11.199Z,23.35
2023-10-26T10:51:15.239Z,22.20
2023-10-26T11:01:20.860Z,22.90
2023-10-26T11:11:28.868Z,17.05
2023-10-26T11:21:31.593Z,17.67
2023-10-26T11:31:43.445Z,18.80
2023-10-26T11:41:54.175Z,21.98
2023-10-26T11:52:00.233Z,23.00
2023-10-26T12:02:03.807Z,24.25
2023-10-26T12:12:08.579Z,24.73
2023-10-26T12:22:11.226Z,21.95
2023-10-26T12:32:16.026Z,14.57
2023-10-26T12:42:19.081Z,17.98
2023-10-26T12:52:23.120Z,14.77
2023-10-26T13:02:25.794Z,16.40
2023-10-26T13:12:29.843Z,15.02
2023-10-26T13:22:32.519Z,13.90
2023-10-26T13:32:36.761Z,13.30
2023-10-26T13:42:39.473Z,11.05
2023-10-26T13:52:43.623Z,10.95
2023-10-26T14:02:46.504Z,11.23
2023-10-26T14:12:50.617Z,12.10
2023-10-26T14:22:53.274Z,13.57
2023-10-26T14:32:57.282Z,14.00
2023-10-26T14:43:00.045Z,14.05
2023-10-26T14:53:04.264Z,14.85
2023-10-26T15:03:07.472Z,13.60
2023-10-26T15:13:11.501Z,16.33
2023-10-26T15:23:14.581Z,16.00
2023-10-26T15:33:19.129Z,15.25
2023-10-26T15:43:21.885Z,18.17
2023-10-26T15:53:26.418Z,23.48
2023-10-26T16:03:31.529Z,20.38
2023-10-26T16:13:35.525Z,25.55
2023-10-26T16:23:38.142Z,22.65
2023-10-26T16:33:42.130Z,18.85
2023-10-26T16:43:45.128Z,16.85
2023-10-26T16:53:49.139Z,17.80
2023-10-26T17:03:51.777Z,18.48
2023-10-26T17:13:55.733Z,22.58
2023-10-26T17:23:58.724Z,22.70
2023-10-26T17:34:02.721Z,17.95
2023-10-26T17:44:06.109Z,17.65
2023-10-26T17:54:13.312Z,14.88
2023-10-26T18:04:16.153Z,13.80
2023-10-26T18:14:20.325Z,19.88
2023-10-26T18:24:22.989Z,13.80
2023-10-26T18:34:27.163Z,12.60
2023-10-26T18:44:29.866Z,14.40
2023-10-26T18:54:34.701Z,18.45
2023-10-26T19:04:37.389Z,16.95
2023-10-26T19:14:41.454Z,15.50
2023-10-26T19:24:44.174Z,9.38
2023-10-26T19:34:48.285Z,7.68
2023-10-26T19:44:51.167Z,8.88
2023-10-26T19:54:56.027Z,10.57
2023-10-26T20:04:59.214Z,15.70
2023-10-26T20:15:03.430Z,14.55
2023-10-26T20:25:06.898Z,11.15
2023-10-26T20:35:11.481Z,17.77
2023-10-26T20:45:14.224Z,17.50
2023-10-26T20:55:20.061Z,16.10
2023-10-26T21:05:22.790Z,18.33
2023-10-26T21:15:26.991Z,18.17
2023-10-26T21:25:34.558Z,22.20
2023-10-26T21:35:39.630Z,20.38
2023-10-26T21:45:44.968Z,22.42
2023-10-26T21:55:49.153Z,19.05
2023-10-26T22:05:52.166Z,18.60
2023-10-26T22:15:56.525Z,19.90
2023-10-26T22:25:59.682Z,15.80
2023-10-26T22:36:03.801Z,22.50
2023-10-26T22:46:06.669Z,15.85
2023-10-26T22:56:19.128Z,16.20
2023-10-26T23:06:22.639Z,16.63
2023-10-26T23:16:26.687Z,14.65
2023-10-26T23:26:29.504Z,18.98
2023-10-26T23:36:33.512Z,15.88
2023-10-26T23:46:36.364Z,15.52
2023-10-26T23:56:40.457Z,17.60
